Seaforth, Minnesota
Current Conditions -  °F | °C
As of 9:53 PM on Wednesday 28 Jan 2015 (Local Time) from KRWF Reporting Station
Haze Haze  
Wind Chill: -3°   Ceiling: 200
Heat Index:   Visibility: 1.5mi
Dew Point:   Wind: 8mph
Humidity: 96%   Direction: 330°NNW
Pressure: 29.88"   Gusts: NA
Location:  44.48°N, 95.33°W
Report Text: KRWF 290353Z AUTO 33007KT 1 1/2SM BR OVC002 01/00 A2988 RMK AO2 SLP128 T00060000
Loading
Personal Weather Stations






























Interactive Weather Map New forecast layout! Learn more

10-Day Weather Forecast

Advertisements
Track Severe Weather on mobile